createdAt,value
2022-08-17T00:01:55.908Z,20.70
2022-08-17T00:04:50.329Z,20.80
2022-08-17T00:07:30.539Z,20.76
2022-08-17T00:10:20.583Z,20.72
2022-08-17T00:13:14.279Z,20.71
2022-08-17T00:16:05.924Z,20.64
2022-08-17T00:19:06.791Z,20.55
2022-08-17T00:22:33.121Z,20.50
2022-08-17T00:24:55.887Z,20.40
2022-08-17T00:27:44.446Z,20.32
2022-08-17T00:30:52.985Z,20.29
2022-08-17T00:33:44.792Z,20.25
2022-08-17T00:36:24.119Z,20.22
2022-08-17T00:39:12.990Z,20.17
2022-08-17T00:41:45.432Z,20.10
2022-08-17T00:44:15.167Z,20.06
2022-08-17T00:46:44.396Z,20.03
2022-08-17T00:49:18.831Z,20.08
2022-08-17T00:52:16.088Z,20.18
2022-08-17T00:55:07.263Z,20.25
2022-08-17T00:58:00.116Z,20.26
2022-08-17T01:00:49.694Z,20.15
2022-08-17T01:03:40.729Z,20.05
2022-08-17T01:06:22.878Z,19.98
2022-08-17T01:09:35.939Z,20.01
2022-08-17T01:12:28.129Z,20.12
2022-08-17T01:15:17.044Z,20.24
2022-08-17T01:18:08.213Z,20.19
2022-08-17T01:21:10.771Z,20.04
2022-08-17T01:24:00.501Z,19.89
2022-08-17T01:26:32.332Z,19.80
2022-08-17T01:29:12.699Z,19.74
2022-08-17T01:32:05.618Z,19.82
2022-08-17T01:34:50.540Z,19.89
2022-08-17T01:37:33.991Z,19.85
2022-08-17T01:40:18.361Z,19.77
2022-08-17T01:43:10.639Z,19.69
2022-08-17T01:46:03.207Z,19.64
2022-08-17T01:48:34.030Z,19.59
2022-08-17T01:51:03.666Z,19.54
2022-08-17T01:53:56.897Z,19.56
2022-08-17T01:56:40.119Z,19.58
2022-08-17T01:59:28.880Z,19.58
2022-08-17T02:02:08.320Z,19.54
2022-08-17T02:04:56.977Z,19.55
2022-08-17T02:07:26.969Z,19.53
2022-08-17T02:10:18.966Z,19.51
2022-08-17T02:12:52.382Z,19.46
2022-08-17T02:15:21.787Z,19.42
2022-08-17T02:17:54.770Z,19.38
2022-08-17T02:20:43.713Z,19.35
2022-08-17T02:23:13.937Z,19.33
2022-08-17T02:25:53.963Z,19.28
2022-08-17T02:28:42.783Z,19.23
2022-08-17T02:31:35.147Z,19.20
2022-08-17T02:34:23.966Z,19.18
2022-08-17T02:37:03.039Z,19.16
2022-08-17T02:39:53.111Z,19.17
2022-08-17T02:42:36.289Z,19.16
2022-08-17T02:45:16.608Z,19.19
2022-08-17T02:47:55.807Z,19.29
2022-08-17T02:50:44.394Z,19.39
2022-08-17T02:53:25.564Z,19.42
2022-08-17T02:56:14.644Z,19.36
2022-08-17T02:59:03.610Z,19.28
2022-08-17T03:01:42.644Z,19.21
2022-08-17T03:04:31.495Z,19.22
2022-08-17T03:07:04.956Z,19.23
2022-08-17T03:09:33.939Z,19.25
2022-08-17T03:12:08.000Z,19.36
2022-08-17T03:14:57.172Z,19.42
2022-08-17T03:17:47.114Z,19.38
2022-08-17T03:20:36.722Z,19.31
2022-08-17T03:23:27.888Z,19.29
2022-08-17T03:26:15.611Z,19.35
2022-08-17T03:29:05.044Z,19.40
2022-08-17T03:31:55.187Z,19.38
2022-08-17T03:34:44.203Z,19.35
2022-08-17T03:37:12.837Z,19.34
2022-08-17T03:39:54.162Z,19.32
2022-08-17T03:42:44.083Z,19.33
2022-08-17T03:45:40.705Z,19.36
2022-08-17T03:48:39.546Z,19.38
2022-08-17T03:51:46.809Z,19.41
2022-08-17T03:54:45.109Z,19.47
2022-08-17T03:57:14.203Z,19.54
2022-08-17T04:00:04.724Z,19.61
2022-08-17T04:02:54.075Z,19.58
2022-08-17T04:05:44.356Z,19.53
2022-08-17T04:08:33.689Z,19.57
2022-08-17T04:11:03.118Z,19.68
2022-08-17T04:13:42.837Z,19.76
2022-08-17T04:16:11.425Z,19.77
2022-08-17T04:19:00.679Z,19.80
2022-08-17T04:21:51.922Z,19.90
2022-08-17T04:24:30.419Z,19.97
2022-08-17T04:27:18.303Z,20.06
2022-08-17T04:30:10.118Z,20.19
2022-08-17T04:33:06.482Z,20.28
2022-08-17T04:35:58.978Z,20.34
2022-08-17T04:38:40.184Z,20.44
2022-08-17T04:41:47.039Z,20.55
2022-08-17T04:44:15.848Z,20.67
2022-08-17T04:47:23.652Z,20.82
2022-08-17T04:50:12.559Z,20.97
2022-08-17T04:53:01.818Z,21.07
2022-08-17T04:55:52.763Z,21.16
2022-08-17T04:58:41.424Z,21.25
2022-08-17T05:01:34.348Z,21.27
2022-08-17T05:04:34.913Z,21.38
2022-08-17T05:07:27.244Z,21.82
2022-08-17T05:10:11.227Z,22.28
2022-08-17T05:12:59.762Z,22.73
2022-08-17T05:15:45.178Z,23.37
2022-08-17T05:18:30.126Z,23.87
2022-08-17T05:21:19.984Z,24.43
2022-08-17T05:24:42.467Z,25.11
2022-08-17T05:27:19.122Z,25.48
2022-08-17T10:31:39.481Z,29.53
2022-08-17T10:34:54.317Z,30.02
2022-08-17T10:38:14.883Z,30.48
2022-08-17T10:41:19.143Z,30.94
2022-08-17T10:44:37.877Z,31.42
2022-08-17T10:48:04.053Z,31.92
2022-08-17T10:51:07.124Z,32.31
2022-08-17T10:54:01.099Z,32.18
2022-08-17T10:56:52.519Z,32.00
2022-08-17T10:59:54.599Z,31.72
2022-08-17T11:02:52.371Z,31.33
2022-08-17T11:05:51.771Z,30.91
2022-08-17T11:09:19.771Z,30.60
2022-08-17T11:12:19.840Z,30.58
2022-08-17T11:15:21.846Z,30.74
2022-08-17T11:18:38.441Z,31.10
2022-08-17T11:22:01.715Z,31.44
2022-08-17T11:24:46.895Z,31.63
2022-08-17T11:27:36.985Z,31.78
2022-08-17T11:30:50.937Z,32.12
2022-08-17T11:34:07.652Z,32.36
2022-08-17T11:37:29.897Z,32.38
2022-08-17T11:40:37.988Z,32.23
2022-08-17T11:43:49.788Z,32.05
2022-08-17T11:47:16.015Z,32.13
2022-08-17T11:50:54.823Z,32.35
2022-08-17T11:57:59.728Z,32.52
2022-08-17T12:00:56.718Z,32.66
2022-08-17T12:03:58.798Z,32.87
2022-08-17T12:06:52.263Z,32.79
2022-08-17T12:09:44.937Z,32.68
2022-08-17T12:12:35.370Z,32.58
2022-08-17T12:15:29.904Z,32.50
2022-08-17T12:18:24.324Z,32.48
2022-08-17T12:21:41.143Z,32.43
2022-08-17T12:24:41.056Z,32.44
2022-08-17T12:28:02.064Z,32.24
2022-08-17T12:30:49.168Z,31.93
2022-08-17T12:33:45.549Z,31.73
2022-08-17T12:36:35.181Z,31.61
2022-08-17T12:39:26.478Z,31.60
2022-08-17T12:42:24.819Z,31.40
2022-08-17T12:45:25.504Z,31.40
2022-08-17T12:48:07.155Z,31.49
2022-08-17T12:51:01.928Z,31.60
2022-08-17T12:53:54.876Z,31.59
2022-08-17T12:56:46.330Z,31.42
2022-08-17T12:59:41.584Z,31.46
2022-08-17T13:02:41.648Z,31.62
2022-08-17T13:05:35.488Z,31.84
2022-08-17T13:08:27.652Z,31.94
2022-08-17T13:11:21.189Z,32.02
2022-08-17T13:14:10.876Z,32.15
2022-08-17T13:17:04.851Z,32.26
2022-08-17T13:19:57.091Z,32.19
2022-08-17T13:22:54.895Z,31.96
2022-08-17T13:25:54.415Z,31.79
2022-08-17T14:11:06.304Z,29.40
2022-08-17T14:14:36.227Z,29.44
2022-08-17T14:25:54.653Z,29.33
2022-08-17T14:28:50.714Z,29.20
2022-08-17T14:37:28.780Z,28.95
2022-08-17T14:44:52.441Z,29.24
2022-08-17T14:47:41.997Z,29.26
2022-08-17T14:55:27.816Z,29.19
2022-08-17T14:58:17.480Z,29.12
2022-08-17T15:01:09.548Z,29.04
2022-08-17T15:04:00.945Z,28.96
2022-08-17T15:06:50.169Z,28.88
2022-08-17T15:09:39.505Z,28.82
2022-08-17T15:12:32.341Z,28.72
2022-08-17T15:15:23.483Z,28.63
2022-08-17T15:18:12.377Z,28.52
2022-08-17T15:21:04.568Z,28.45
2022-08-17T15:23:53.220Z,28.36
2022-08-17T15:26:42.733Z,28.28
2022-08-17T15:29:31.424Z,28.22
2022-08-17T15:32:28.497Z,28.13
2022-08-17T15:35:17.473Z,27.98
2022-08-17T15:38:11.712Z,27.89
2022-08-17T15:41:01.443Z,27.81
2022-08-17T15:43:50.996Z,27.74
2022-08-17T15:46:40.017Z,27.71
2022-08-17T15:49:30.776Z,27.66
2022-08-17T15:52:22.873Z,27.60
2022-08-17T15:55:13.973Z,27.52
2022-08-17T15:58:03.095Z,27.47
2022-08-17T16:01:15.022Z,27.42
2022-08-17T16:04:07.273Z,27.33
2022-08-17T16:07:10.770Z,27.21
2022-08-17T16:09:59.631Z,27.11
2022-08-17T16:12:44.429Z,27.01
2022-08-17T16:15:33.162Z,26.89
2022-08-17T16:18:22.047Z,26.77
2022-08-17T16:21:26.372Z,26.68
2022-08-17T16:24:15.319Z,26.66
2022-08-17T16:27:12.438Z,26.69
2022-08-17T16:30:02.213Z,26.69
2022-08-17T16:32:52.388Z,26.65
2022-08-17T16:35:42.522Z,26.62
2022-08-17T16:38:31.310Z,26.59
2022-08-17T16:41:35.318Z,26.58
2022-08-17T16:44:25.173Z,26.54
2022-08-17T16:47:16.862Z,26.49
2022-08-17T16:50:08.319Z,26.49
2022-08-17T16:53:06.019Z,26.55
2022-08-17T16:55:56.013Z,26.59
2022-08-17T16:58:44.765Z,26.56
2022-08-17T17:01:34.198Z,26.45
2022-08-17T17:04:23.727Z,26.39
2022-08-17T17:07:35.555Z,26.36
2022-08-17T17:10:30.372Z,26.33
2022-08-17T17:13:31.668Z,26.31
2022-08-17T17:16:28.283Z,26.25
2022-08-17T17:19:34.628Z,26.18
2022-08-17T17:22:30.600Z,26.11
2022-08-17T17:25:26.492Z,26.04
2022-08-17T18:35:29.707Z,24.12
2022-08-17T18:43:28.054Z,23.94
2022-08-17T18:51:40.641Z,23.78
2022-08-17T18:55:08.415Z,23.61
2022-08-17T19:03:39.327Z,23.32
2022-08-17T19:10:46.998Z,23.24
2022-08-17T19:22:13.031Z,23.05
2022-08-17T19:25:04.022Z,22.97
2022-08-17T19:33:29.409Z,22.82
2022-08-17T19:35:59.918Z,22.73
2022-08-17T19:40:05.888Z,22.62
2022-08-17T19:47:54.854Z,22.45
2022-08-17T19:51:15.095Z,22.38
2022-08-17T19:58:51.927Z,22.19
2022-08-17T20:10:39.079Z,22.03
2022-08-17T20:13:10.941Z,22.00
2022-08-17T20:15:43.180Z,21.98
2022-08-17T20:18:19.226Z,21.95
2022-08-17T20:21:20.112Z,21.93
2022-08-17T20:23:57.233Z,21.94
2022-08-17T20:26:33.777Z,21.96
2022-08-17T20:29:40.415Z,21.98
2022-08-17T20:32:21.381Z,22.01
2022-08-17T20:35:05.782Z,22.00
2022-08-17T20:37:53.477Z,21.97
2022-08-17T20:40:34.636Z,21.94
2022-08-17T20:43:44.036Z,21.89
2022-08-17T20:46:18.204Z,21.81
2022-08-17T20:49:20.608Z,21.74
2022-08-17T20:52:07.142Z,21.70
2022-08-17T20:54:50.351Z,21.66
2022-08-17T20:57:47.268Z,21.61
2022-08-17T21:00:42.701Z,21.56
2022-08-17T21:03:51.934Z,21.51
2022-08-17T21:07:14.942Z,21.48
2022-08-17T21:09:44.553Z,21.47
2022-08-17T21:12:43.158Z,21.47
2022-08-17T21:15:29.728Z,21.46
2022-08-17T21:18:21.809Z,21.48
2022-08-17T21:21:19.810Z,21.50
2022-08-17T21:24:18.986Z,21.59
2022-08-17T21:27:04.787Z,21.72
2022-08-17T21:29:53.254Z,21.86
2022-08-17T21:32:34.681Z,21.99
2022-08-17T21:35:34.320Z,22.04
2022-08-17T21:38:14.248Z,21.99
2022-08-17T21:40:49.752Z,21.90
2022-08-17T21:43:26.313Z,21.84
2022-08-17T21:46:08.639Z,21.80
2022-08-17T21:48:44.490Z,21.76
2022-08-17T21:51:22.590Z,21.70
2022-08-17T21:53:53.761Z,21.64
2022-08-17T21:56:36.226Z,21.59
2022-08-17T21:59:08.603Z,21.54
2022-08-17T22:01:39.694Z,21.49
2022-08-17T22:04:25.006Z,21.45
2022-08-17T22:06:57.590Z,21.37
2022-08-17T22:09:31.601Z,21.31
2022-08-17T22:12:05.607Z,21.23
2022-08-17T22:14:52.090Z,21.17
2022-08-17T22:17:26.898Z,21.11
2022-08-17T22:19:58.962Z,21.07
2022-08-17T22:22:55.800Z,21.05
2022-08-17T22:25:26.900Z,21.03
2022-08-17T22:27:58.879Z,21.01
2022-08-17T22:30:36.334Z,20.97
2022-08-17T22:33:37.052Z,20.94
2022-08-17T22:36:25.032Z,20.92
2022-08-17T22:38:59.384Z,20.91
2022-08-17T22:41:40.692Z,20.91
2022-08-17T22:44:31.839Z,20.87
2022-08-17T22:47:06.143Z,20.83
2022-08-17T22:49:53.767Z,20.81
2022-08-17T22:52:55.625Z,20.81
2022-08-17T22:55:48.156Z,20.82
2022-08-17T22:58:38.225Z,20.83
2022-08-17T23:01:25.638Z,20.86
2022-08-17T23:03:55.581Z,20.83
2022-08-17T23:06:24.575Z,20.77
2022-08-17T23:08:57.463Z,20.68
2022-08-17T23:11:42.864Z,20.61
2022-08-17T23:14:20.632Z,20.55
2022-08-17T23:16:52.114Z,20.51
2022-08-17T23:19:22.088Z,20.49
2022-08-17T23:21:53.869Z,20.45
2022-08-17T23:24:27.564Z,20.43
2022-08-17T23:26:57.601Z,20.43
2022-08-17T23:29:29.036Z,20.40
2022-08-17T23:32:01.003Z,20.36
2022-08-17T23:34:29.917Z,20.34
2022-08-17T23:37:01.775Z,20.32
2022-08-17T23:39:31.195Z,20.34
2022-08-17T23:42:07.343Z,20.37
2022-08-17T23:44:37.135Z,20.38
2022-08-17T23:47:08.472Z,20.40
2022-08-17T23:49:41.145Z,20.40
2022-08-17T23:52:22.243Z,20.41
2022-08-17T23:54:51.234Z,20.41
2022-08-17T23:57:33.095Z,20.45
